Time;durP1;ratioP1;P1;durP2;ratioP2;P2;SDS_P1;SDS_P2;PMS_P1;PMS_P2;Temp;Humidity;BMP_temperature;BMP_pressure;BME280_temperature;BME280_humidity;BME280_pressure;Samples;Min_cycle;Max_cycle;Signal;HPM_P1;HPM_P2
2021/11/28 00:01:08;;;;;;;11.77;5.70;;;8.70;86.40;;;;;;5032265;28;20116;-84
2021/11/28 00:03:34;;;;;;;12.90;6.40;;;8.70;86.40;;;;;;5030840;28;20047;-85
2021/11/28 00:06:03;;;;;;;11.77;6.18;;;8.70;86.40;;;;;;5021425;28;20097;-84
2021/11/28 00:11:05;;;;;;;13.25;6.65;;;8.60;86.40;;;;;;5024984;28;20034;-85
2021/11/28 00:15:59;;;;;;;11.10;5.97;;;8.60;86.40;;;;;;5027358;28;20030;-85
2021/11/28 00:18:26;;;;;;;12.30;6.47;;;8.60;86.40;;;;;;5030861;28;20044;-84
2021/11/28 00:20:52;;;;;;;12.73;7.03;;;8.60;86.30;;;;;;5025152;28;20057;-84
2021/11/28 00:23:18;;;;;;;13.50;7.03;;;8.60;86.40;;;;;;5028881;28;20030;-84
2021/11/28 00:25:44;;;;;;;14.40;7.35;;;8.50;86.30;;;;;;5032155;28;20359;-85
2021/11/28 00:28:13;;;;;;;17.38;7.57;;;8.60;86.40;;;;;;5021925;28;20030;-84
2021/11/28 00:30:40;;;;;;;11.45;6.30;;;8.50;86.40;;;;;;5022912;28;20048;-84
2021/11/28 00:33:06;;;;;;;14.93;6.82;;;8.50;86.40;;;;;;5020892;28;20060;-85
2021/11/28 00:35:31;;;;;;;12.15;6.45;;;8.50;86.40;;;;;;5033500;28;20025;-85
2021/11/28 00:37:57;;;;;;;13.10;6.32;;;8.50;86.50;;;;;;5031965;28;20041;-83
2021/11/28 00:40:23;;;;;;;14.73;6.82;;;8.50;86.50;;;;;;5031103;28;20408;-84
2021/11/28 00:42:55;;;;;;;12.07;6.75;;;8.40;86.50;;;;;;5031604;28;20120;-83
2021/11/28 00:45:20;;;;;;;14.60;6.57;;;8.40;86.60;;;;;;5028676;28;20501;-84
2021/11/28 00:47:46;;;;;;;11.85;6.88;;;8.40;86.70;;;;;;5032270;28;20104;-84
2021/11/28 00:52:39;;;;;;;10.63;5.78;;;8.40;86.80;;;;;;5030177;28;20080;-83
2021/11/28 00:55:06;;;;;;;12.45;6.93;;;8.40;86.90;;;;;;5022477;28;20099;-84
2021/11/28 00:57:33;;;;;;;10.43;5.15;;;8.30;87.00;;;;;;5027761;28;20029;-84
2021/11/28 01:00:04;;;;;;;14.07;6.40;;;8.20;87.10;;;;;;5030442;28;20517;-84
2021/11/28 01:02:33;;;;;;;12.50;6.85;;;8.20;87.20;;;;;;5030574;28;20030;-84
2021/11/28 01:04:59;;;;;;;10.75;4.57;;;8.10;87.30;;;;;;5025940;28;20118;-84
2021/11/28 01:07:26;;;;;;;12.52;7.10;;;8.10;87.40;;;;;;5029383;28;20061;-85
2021/11/28 01:09:53;;;;;;;14.32;8.05;;;8.10;87.60;;;;;;5019890;28;20022;-83
2021/11/28 01:12:19;;;;;;;12.30;7.10;;;8.10;87.60;;;;;;5031552;28;20076;-86
2021/11/28 01:14:49;;;;;;;18.65;7.15;;;8.00;87.70;;;;;;5027387;28;20029;-88
2021/11/28 01:17:14;;;;;;;13.07;4.57;;;8.00;87.80;;;;;;5018791;28;20032;-87
2021/11/28 01:19:40;;;;;;;14.40;7.63;;;8.00;87.80;;;;;;5016707;28;20034;-86
2021/11/28 01:22:09;;;;;;;13.57;5.35;;;7.90;87.80;;;;;;5021140;28;20037;-87
2021/11/28 01:24:37;;;;;;;14.45;8.10;;;8.00;88.00;;;;;;5028043;28;20067;-86
2021/11/28 01:27:06;;;;;;;13.05;7.20;;;7.90;88.00;;;;;;5031609;28;20041;-84
2021/11/28 01:29:33;;;;;;;15.25;7.38;;;7.90;88.00;;;;;;5030185;28;20071;-85
2021/11/28 01:32:02;;;;;;;14.38;7.03;;;7.90;88.20;;;;;;5021435;28;20477;-86
2021/11/28 01:34:28;;;;;;;15.10;6.95;;;7.90;88.30;;;;;;5030875;28;20026;-86
2021/11/28 01:36:54;;;;;;;14.25;6.90;;;7.80;88.30;;;;;;5029836;28;20026;-85
2021/11/28 01:39:21;;;;;;;6.18;3.53;;;7.80;88.40;;;;;;5026261;28;20030;-84
2021/11/28 01:41:48;;;;;;;13.70;5.47;;;7.90;88.50;;;;;;5031143;28;20095;-85
2021/11/28 01:44:15;;;;;;;14.35;6.55;;;7.80;88.50;;;;;;5033791;28;20053;-84
2021/11/28 01:46:41;;;;;;;12.60;5.50;;;7.80;88.60;;;;;;5033785;28;20080;-84
2021/11/28 01:49:08;;;;;;;11.98;6.30;;;7.80;88.70;;;;;;5034242;28;20064;-86
2021/11/28 01:51:34;;;;;;;11.23;5.78;;;7.80;88.70;;;;;;5024651;28;20153;-85
2021/11/28 01:54:00;;;;;;;10.85;5.78;;;7.70;88.80;;;;;;5016040;28;20040;-84
2021/11/28 01:56:27;;;;;;;9.02;4.63;;;7.70;88.90;;;;;;5049621;28;20020;-86
2021/11/28 01:58:54;;;;;;;10.27;6.35;;;7.70;89.00;;;;;;5035927;28;20025;-83
2021/11/28 02:01:21;;;;;;;15.35;6.78;;;7.70;89.00;;;;;;5032984;28;20068;-86
2021/11/28 02:03:48;;;;;;;12.40;7.05;;;7.70;89.10;;;;;;5025732;28;20052;-83
2021/11/28 02:06:18;;;;;;;14.43;7.55;;;7.70;89.10;;;;;;5035026;28;20029;-85
2021/11/28 02:08:44;;;;;;;14.27;6.88;;;7.70;89.10;;;;;;5032512;28;20495;-84
2021/11/28 02:11:13;;;;;;;13.05;6.18;;;7.70;89.00;;;;;;5034898;28;20135;-84
2021/11/28 02:13:39;;;;;;;12.90;7.05;;;7.70;88.90;;;;;;5032422;28;20025;-85
2021/11/28 02:16:10;;;;;;;8.93;5.20;;;7.70;88.90;;;;;;5034220;28;20030;-85
2021/11/28 02:18:36;;;;;;;14.82;6.05;;;7.70;88.90;;;;;;5023025;28;20036;-85
2021/11/28 02:21:05;;;;;;;12.68;4.95;;;7.60;89.00;;;;;;5020407;28;20022;-83
2021/11/28 02:23:33;;;;;;;11.98;5.72;;;7.60;89.00;;;;;;5044641;28;20025;-85
2021/11/28 02:26:03;;;;;;;8.82;5.72;;;7.60;89.10;;;;;;5023356;28;20018;-85
2021/11/28 02:28:30;;;;;;;15.20;7.00;;;7.60;89.30;;;;;;5025297;28;20061;-84
2021/11/28 02:30:55;;;;;;;12.57;7.35;;;7.50;89.30;;;;;;5026358;28;20367;-84
2021/11/28 02:33:22;;;;;;;10.43;6.30;;;7.40;89.30;;;;;;5033935;28;20362;-84
2021/11/28 02:35:48;;;;;;;15.65;5.80;;;7.40;89.30;;;;;;5034249;28;20022;-84
2021/11/28 02:38:14;;;;;;;13.45;7.18;;;7.40;89.40;;;;;;5031379;28;20393;-84
2021/11/28 02:40:42;;;;;;;9.45;4.60;;;7.40;89.50;;;;;;5036043;28;20028;-84
2021/11/28 02:43:08;;;;;;;12.25;5.25;;;7.40;89.60;;;;;;5035542;28;20463;-84
2021/11/28 02:45:34;;;;;;;12.73;6.47;;;7.40;89.60;;;;;;5032748;28;20072;-85
2021/11/28 02:48:05;;;;;;;14.57;6.78;;;7.30;89.60;;;;;;5037230;28;20029;-85
2021/11/28 02:50:31;;;;;;;11.75;6.07;;;7.30;89.70;;;;;;5033195;28;20022;-85
2021/11/28 02:53:00;;;;;;;13.38;7.35;;;7.30;89.70;;;;;;5019556;28;20045;-84
2021/11/28 02:55:29;;;;;;;14.98;6.45;;;7.30;89.80;;;;;;5030689;28;20118;-84
2021/11/28 02:57:57;;;;;;;9.50;4.70;;;7.20;89.80;;;;;;5036728;28;20029;-84
2021/11/28 03:00:25;;;;;;;7.85;4.07;;;7.20;89.80;;;;;;5032840;28;20030;-85
2021/11/28 03:02:54;;;;;;;12.93;5.95;;;7.20;89.80;;;;;;5041590;28;20049;-85
2021/11/28 03:05:24;;;;;;;11.57;6.43;;;7.20;89.80;;;;;;5034786;28;20381;-85
2021/11/28 03:07:49;;;;;;;19.27;8.48;;;7.10;89.80;;;;;;5034147;28;20030;-84
2021/11/28 03:10:40;;;;;;;12.40;6.90;;;7.20;89.90;;;;;;5033291;28;20037;-84
2021/11/28 03:13:29;;;;;;;16.17;7.82;;;7.10;89.90;;;;;;5030653;28;20053;-85
2021/11/28 03:15:58;;;;;;;15.02;8.27;;;7.10;89.80;;;;;;5032118;28;20063;-86
2021/11/28 03:18:26;;;;;;;17.35;7.18;;;7.10;89.70;;;;;;5022163;28;20064;-86
2021/11/28 03:20:54;;;;;;;13.98;6.78;;;7.10;89.70;;;;;;5037972;28;20183;-86
2021/11/28 03:23:24;;;;;;;14.85;8.07;;;7.10;89.70;;;;;;5033615;28;20034;-86
2021/11/28 03:25:50;;;;;;;21.42;8.85;;;7.10;89.70;;;;;;5040339;28;20034;-86
2021/11/28 03:28:18;;;;;;;15.98;8.43;;;7.00;89.60;;;;;;5016148;28;20034;-86
2021/11/28 03:30:48;;;;;;;15.25;8.23;;;7.10;89.70;;;;;;5020426;28;20474;-85
2021/11/28 03:33:32;;;;;;;16.85;8.32;;;7.10;89.60;;;;;;5033782;28;20048;-85
2021/11/28 03:36:14;;;;;;;14.80;7.65;;;7.10;89.50;;;;;;5022626;28;20034;-85
2021/11/28 03:38:42;;;;;;;16.88;7.78;;;7.10;89.40;;;;;;5021504;28;20021;-86
2021/11/28 03:41:09;;;;;;;16.60;8.73;;;7.10;89.40;;;;;;5049974;28;20053;-86
2021/11/28 03:43:36;;;;;;;15.77;8.48;;;7.10;89.30;;;;;;5033226;28;20025;-86
2021/11/28 03:46:02;;;;;;;15.90;8.73;;;7.10;89.30;;;;;;5024701;28;20477;-86
2021/11/28 03:48:28;;;;;;;15.40;8.25;;;7.10;89.20;;;;;;5031281;28;20079;-85
2021/11/28 03:51:00;;;;;;;13.93;7.95;;;7.10;89.10;;;;;;5032085;28;20025;-86
2021/11/28 03:53:25;;;;;;;19.48;9.38;;;7.10;89.10;;;;;;5031889;28;20036;-85
2021/11/28 03:55:52;;;;;;;21.60;7.90;;;7.10;88.90;;;;;;5016795;28;20022;-85
2021/11/28 03:58:21;;;;;;;14.65;8.60;;;7.10;88.90;;;;;;5016924;28;20083;-85
2021/11/28 04:00:46;;;;;;;17.95;9.55;;;7.10;88.90;;;;;;5030484;28;20025;-85
2021/11/28 04:03:14;;;;;;;16.50;9.50;;;7.10;88.70;;;;;;5059208;28;20476;-85
2021/11/28 04:05:41;;;;;;;16.08;8.40;;;7.10;88.60;;;;;;5032867;28;20029;-85
2021/11/28 04:08:07;;;;;;;20.80;8.65;;;7.10;88.50;;;;;;5034276;28;20025;-83
2021/11/28 04:10:33;;;;;;;16.02;8.43;;;7.10;88.50;;;;;;5031968;28;20485;-85
2021/11/28 04:12:59;;;;;;;13.95;8.10;;;7.00;88.40;;;;;;5031541;28;20068;-84
2021/11/28 04:15:24;;;;;;;14.27;7.95;;;7.00;88.40;;;;;;5031522;28;20022;-86
2021/11/28 04:17:59;;;;;;;11.65;6.75;;;7.00;88.30;;;;;;5033891;28;20033;-85
2021/11/28 04:20:25;;;;;;;14.73;8.68;;;7.00;88.40;;;;;;5033930;28;20026;-86
2021/11/28 04:22:51;;;;;;;15.10;7.65;;;7.00;88.40;;;;;;5020355;28;20446;-83
2021/11/28 04:25:17;;;;;;;14.15;8.77;;;6.90;88.20;;;;;;5033761;28;20041;-88
2021/11/28 04:27:44;;;;;;;14.85;8.02;;;7.00;88.20;;;;;;5030731;28;20029;-86
2021/11/28 04:30:12;;;;;;;13.75;7.80;;;6.90;88.20;;;;;;5032949;28;20087;-86
2021/11/28 04:32:38;;;;;;;15.90;8.88;;;7.00;88.20;;;;;;5022213;28;20038;-85
2021/11/28 04:35:05;;;;;;;17.40;9.02;;;6.90;88.10;;;;;;5026559;28;20036;-85
2021/11/28 04:37:31;;;;;;;14.27;8.05;;;6.90;88.10;;;;;;5021927;28;20037;-91
2021/11/28 04:39:56;;;;;;;15.85;8.35;;;6.90;88.00;;;;;;5030858;28;20029;-88
2021/11/28 04:42:22;;;;;;;15.57;7.97;;;6.90;87.90;;;;;;5031354;28;20032;-86
2021/11/28 04:44:50;;;;;;;12.75;7.20;;;6.90;87.90;;;;;;5037890;28;20474;-86
2021/11/28 04:47:19;;;;;;;14.45;7.82;;;6.80;87.80;;;;;;5026744;28;20072;-88
2021/11/28 04:50:14;;;;;;;14.07;7.57;;;6.80;87.80;;;;;;5029154;28;20045;-86
2021/11/28 04:52:41;;;;;;;13.30;7.78;;;6.80;87.80;;;;;;5032522;28;20045;-86
2021/11/28 04:55:09;;;;;;;15.02;7.50;;;6.80;87.80;;;;;;5024738;28;20093;-84
2021/11/28 04:57:35;;;;;;;12.07;6.75;;;6.80;87.90;;;;;;5030229;28;20036;-86
2021/11/28 05:00:04;;;;;;;14.20;7.53;;;6.70;87.90;;;;;;5032045;28;20068;-85
2021/11/28 05:02:34;;;;;;;14.57;7.13;;;6.70;87.90;;;;;;5031911;28;20030;-87
2021/11/28 05:05:00;;;;;;;13.75;6.70;;;6.70;88.00;;;;;;5032484;28;20117;-85
2021/11/28 05:08:00;;;;;;;14.45;7.35;;;6.70;88.00;;;;;;5031844;28;20041;-86
2021/11/28 05:10:26;;;;;;;15.50;7.30;;;6.70;87.90;;;;;;5027824;28;20034;-87
2021/11/28 05:12:56;;;;;;;15.20;7.68;;;6.60;87.90;;;;;;5031107;28;20378;-86
2021/11/28 05:15:22;;;;;;;14.30;7.50;;;6.60;88.00;;;;;;5028125;28;20041;-87
2021/11/28 05:18:10;;;;;;;13.13;7.25;;;6.70;88.70;;;;;;5035598;28;20045;-86
2021/11/28 05:20:39;;;;;;;15.02;7.25;;;6.60;88.00;;;;;;5034994;28;20064;-87
2021/11/28 05:23:05;;;;;;;11.52;6.78;;;6.60;88.00;;;;;;5022668;28;20042;-86
2021/11/28 05:25:32;;;;;;;12.32;6.90;;;6.60;88.00;;;;;;5021911;28;20057;-86
2021/11/28 05:27:57;;;;;;;12.75;7.13;;;6.60;88.00;;;;;;5033381;28;20029;-85
2021/11/28 05:30:23;;;;;;;12.98;5.93;;;6.60;88.10;;;;;;5026631;28;20477;-86
2021/11/28 05:33:08;;;;;;;14.05;7.20;;;6.60;88.00;;;;;;5022654;28;20052;-87
2021/11/28 05:36:00;;;;;;;11.65;6.10;;;6.60;88.00;;;;;;5027767;28;20385;-87
2021/11/28 05:38:40;;;;;;;11.23;6.00;;;6.60;88.00;;;;;;5021433;28;20022;-85
2021/11/28 05:41:06;;;;;;;12.52;6.03;;;6.60;88.00;;;;;;5026561;28;20029;-83
2021/11/28 05:43:32;;;;;;;10.90;6.15;;;6.50;88.00;;;;;;5034400;28;20026;-87
2021/11/28 05:45:58;;;;;;;10.75;5.05;;;6.50;88.00;;;;;;5030079;28;20028;-87
2021/11/28 05:48:52;;;;;;;11.20;5.07;;;6.40;88.10;;;;;;5029467;28;20105;-86
2021/11/28 05:51:38;;;;;;;12.77;5.55;;;6.40;88.10;;;;;;5030262;28;20061;-87
2021/11/28 05:54:04;;;;;;;12.00;5.82;;;6.40;88.20;;;;;;5031079;28;20030;-82
2021/11/28 05:56:30;;;;;;;10.15;5.53;;;6.30;88.30;;;;;;5031006;28;20044;-94
2021/11/28 05:58:56;;;;;;;16.15;5.05;;;6.30;88.30;;;;;;5033969;28;20089;-90
2021/11/28 06:01:22;;;;;;;9.10;4.90;;;6.30;88.40;;;;;;5040277;28;21029;-94
2021/11/28 06:03:48;;;;;;;10.52;5.30;;;6.30;88.40;;;;;;5030798;28;20037;-86
2021/11/28 06:06:40;;;;;;;10.20;5.60;;;6.30;88.40;;;;;;5022989;28;20044;-86
2021/11/28 06:09:10;;;;;;;11.43;5.03;;;6.30;88.30;;;;;;5022751;28;20031;-86
2021/11/28 06:11:37;;;;;;;12.80;5.15;;;6.30;88.30;;;;;;5024179;28;20550;-87
2021/11/28 06:14:02;;;;;;;6.90;3.38;;;6.30;88.30;;;;;;5019740;28;20030;-86
2021/11/28 06:16:32;;;;;;;9.13;4.65;;;6.30;88.40;;;;;;5019068;28;20096;-85
2021/11/28 06:19:27;;;;;;;9.60;4.25;;;6.30;88.40;;;;;;5036006;28;20029;-85
2021/11/28 06:22:16;;;;;;;7.22;4.95;;;6.20;88.30;;;;;;5036393;28;20049;-87
2021/11/28 06:24:44;;;;;;;6.85;4.15;;;6.20;88.30;;;;;;5036341;28;20021;-88
2021/11/28 06:27:17;;;;;;;10.15;4.63;;;6.20;88.30;;;;;;5034792;28;20033;-87
2021/11/28 06:29:43;;;;;;;8.55;4.57;;;6.20;88.40;;;;;;5021014;28;20048;-87
2021/11/28 06:32:09;;;;;;;6.97;4.07;;;6.20;88.50;;;;;;5035407;28;20045;-88
2021/11/28 06:34:53;;;;;;;;;;;6.20;88.60;;;;;;5024397;28;20033;-88
2021/11/28 06:37:37;;;;;;;7.30;3.92;;;6.20;88.50;;;;;;5018473;28;19916;-85
2021/11/28 06:40:21;;;;;;;;;;;6.20;88.30;;;;;;5030667;28;20033;-87
2021/11/28 06:43:05;;;;;;;9.05;3.58;;;6.20;88.30;;;;;;5023212;28;19916;-85
2021/11/28 06:45:31;;;;;;;9.50;4.53;;;6.20;88.20;;;;;;5031842;28;20044;-87
2021/11/28 06:48:01;;;;;;;9.00;4.13;;;6.20;88.40;;;;;;5025653;28;20481;-87
2021/11/28 06:50:33;;;;;;;6.45;3.67;;;6.10;88.40;;;;;;5033858;28;20025;-88
2021/11/28 06:53:14;;;;;;;3.30;1.83;;;6.10;89.10;;;;;;5034363;28;20041;-85
2021/11/28 06:56:13;;;;;;;6.07;3.35;;;6.10;88.60;;;;;;5013123;28;20043;-86
2021/11/28 06:58:46;;;;;;;5.38;3.13;;;6.00;88.60;;;;;;5036365;28;20098;-88
2021/11/28 07:01:12;;;;;;;5.65;3.10;;;6.00;88.70;;;;;;5034061;28;20116;-88
2021/11/28 07:03:38;;;;;;;4.88;2.50;;;6.00;88.80;;;;;;5036198;28;20485;-89
2021/11/28 07:06:22;;;;;;;8.93;3.33;;;6.10;89.00;;;;;;5035174;28;20045;-86
2021/11/28 07:08:53;;;;;;;6.68;2.90;;;6.10;89.00;;;;;;5032558;28;20746;-87
2021/11/28 07:11:20;;;;;;;4.55;2.67;;;6.10;89.00;;;;;;5034927;28;20028;-87
2021/11/28 07:13:46;;;;;;;5.60;2.33;;;6.20;89.10;;;;;;5023420;28;20137;-84
2021/11/28 07:16:12;;;;;;;4.63;2.40;;;6.20;89.20;;;;;;5019934;28;20018;-86
2021/11/28 07:18:44;;;;;;;5.53;1.77;;;6.30;89.30;;;;;;5036124;28;20492;-87
2021/11/28 07:21:12;;;;;;;4.30;1.90;;;6.30;89.40;;;;;;5023445;28;20125;-87
2021/11/28 07:23:41;;;;;;;2.58;1.73;;;6.40;89.50;;;;;;5049593;28;20056;-86
2021/11/28 07:26:09;;;;;;;3.17;1.60;;;6.40;89.60;;;;;;5022820;28;20079;-88
2021/11/28 07:28:44;;;;;;;2.08;1.45;;;6.50;89.70;;;;;;5033434;28;20029;-86
2021/11/28 07:31:11;;;;;;;3.42;1.63;;;6.50;89.70;;;;;;5033137;28;20179;-86
2021/11/28 07:34:12;;;;;;;2.10;1.50;;;6.50;89.90;;;;;;5014371;28;20045;-85
2021/11/28 07:36:56;;;;;;;2.63;1.63;;;6.50;89.90;;;;;;5029839;28;20068;-86
2021/11/28 07:39:22;;;;;;;4.47;1.60;;;6.60;89.90;;;;;;5032756;28;20033;-86
2021/11/28 07:41:51;;;;;;;2.67;1.50;;;6.60;89.80;;;;;;5029061;28;20053;-86
2021/11/28 07:44:35;;;;;;;3.13;1.50;;;6.60;89.90;;;;;;5032518;28;20056;-88
2021/11/28 07:47:10;;;;;;;1.75;1.38;;;6.70;89.80;;;;;;5029839;28;20053;-83
2021/11/28 07:50:01;;;;;;;2.22;1.48;;;6.70;89.60;;;;;;5023425;28;20128;-85
2021/11/28 07:52:26;;;;;;;2.88;1.70;;;6.70;89.80;;;;;;5032855;28;20493;-86
2021/11/28 07:54:52;;;;;;;2.22;1.80;;;6.70;89.90;;;;;;5025325;28;20036;-87
2021/11/28 07:57:38;;;;;;;2.78;1.58;;;6.70;90.00;;;;;;5028903;28;20033;-83
2021/11/28 08:00:34;;;;;;;1.30;1.08;;;6.70;89.80;;;;;;5026527;28;20026;-84
2021/11/28 08:03:07;;;;;;;2.78;1.63;;;6.70;88.90;;;;;;5033249;28;20034;-85
2021/11/28 08:05:53;;;;;;;;;;;6.70;88.80;;;;;;5030903;28;20039;-85
2021/11/28 08:08:31;;;;;;;3.50;0.98;;;6.60;88.60;;;;;;5028192;28;19909;-83
2021/11/28 08:11:19;;;;;;;;;;;6.50;88.20;;;;;;5027911;28;20048;-85
2021/11/28 08:13:48;;;;;;;0.50;0.50;;;6.50;88.20;;;;;;5028518;28;20008;-84
2021/11/28 08:16:14;;;;;;;3.35;1.42;;;6.40;88.20;;;;;;5025693;28;20505;-82
2021/11/28 08:18:39;;;;;;;1.75;1.35;;;6.30;88.30;;;;;;5023653;28;20022;-83
2021/11/28 08:21:06;;;;;;;4.85;1.60;;;6.30;88.70;;;;;;5029233;28;20040;-82
2021/11/28 08:23:32;;;;;;;1.50;0.90;;;6.30;89.20;;;;;;5028402;28;20030;-82
2021/11/28 08:25:58;;;;;;;5.05;1.75;;;6.30;89.20;;;;;;5029753;28;20029;-84
2021/11/28 08:28:24;;;;;;;2.03;1.35;;;6.30;89.10;;;;;;5027570;28;20033;-82
2021/11/28 08:30:50;;;;;;;0.68;0.68;;;6.30;89.10;;;;;;5027235;28;20079;-82
2021/11/28 08:33:34;;;;;;;0.75;0.75;;;6.30;89.10;;;;;;5027932;28;20051;-81
2021/11/28 08:36:22;;;;;;;2.72;0.98;;;6.30;89.00;;;;;;5023285;28;20029;-83
2021/11/28 08:38:49;;;;;;;2.30;1.27;;;6.30;89.10;;;;;;5028391;28;20029;-81
2021/11/28 08:41:15;;;;;;;3.00;1.65;;;6.30;89.30;;;;;;5029545;28;20029;-82
2021/11/28 08:43:42;;;;;;;0.70;0.70;;;6.30;89.50;;;;;;5027754;28;20037;-83
2021/11/28 08:46:09;;;;;;;0.35;0.35;;;6.30;89.40;;;;;;5028019;28;20035;-77
2021/11/28 08:48:35;;;;;;;3.03;0.93;;;6.30;89.50;;;;;;5024409;28;20124;-81
2021/11/28 08:51:02;;;;;;;2.00;1.08;;;6.30;89.50;;;;;;5025665;28;20049;-80
2021/11/28 08:53:27;;;;;;;1.00;1.00;;;6.30;89.70;;;;;;5030405;28;20069;-81
2021/11/28 08:55:54;;;;;;;2.75;1.63;;;6.30;89.80;;;;;;5023284;28;20017;-82
2021/11/28 08:58:19;;;;;;;4.20;2.13;;;6.30;90.00;;;;;;5024333;28;20636;-81
2021/11/28 09:00:45;;;;;;;5.95;2.35;;;6.20;90.00;;;;;;5029006;28;20037;-81
2021/11/28 09:03:11;;;;;;;4.97;2.28;;;6.30;90.10;;;;;;5030311;28;20036;-89
2021/11/28 09:05:37;;;;;;;3.88;2.13;;;6.30;90.30;;;;;;5022789;28;20075;-73
2021/11/28 09:08:03;;;;;;;6.38;2.50;;;6.40;90.40;;;;;;5027143;28;20082;-79
2021/11/28 09:10:29;;;;;;;2.65;2.13;;;6.50;90.40;;;;;;5025469;28;20045;-82
2021/11/28 09:12:56;;;;;;;3.70;2.15;;;6.60;90.40;;;;;;5023692;28;20033;-83
2021/11/28 09:15:25;;;;;;;2.95;1.85;;;6.60;90.40;;;;;;5029190;28;20033;-82
2021/11/28 09:17:55;;;;;;;4.35;1.75;;;6.70;90.30;;;;;;5022288;28;20117;-83
2021/11/28 09:20:25;;;;;;;3.25;1.50;;;6.70;90.20;;;;;;5027151;28;20064;-83
2021/11/28 09:25:24;;;;;;;3.60;2.00;;;6.80;90.20;;;;;;5027806;28;20038;-83
2021/11/28 09:28:00;;;;;;;5.15;1.70;;;6.80;90.20;;;;;;5027109;28;20079;-82
2021/11/28 09:30:26;;;;;;;2.33;1.50;;;6.90;90.20;;;;;;5022558;28;20113;-83
2021/11/28 09:32:54;;;;;;;2.83;1.80;;;6.90;90.30;;;;;;5023479;28;20044;-82
2021/11/28 09:35:20;;;;;;;2.63;1.40;;;6.90;90.30;;;;;;5025159;28;20029;-84
2021/11/28 09:37:46;;;;;;;2.63;1.73;;;7.00;90.30;;;;;;5022698;28;20033;-82
2021/11/28 09:40:11;;;;;;;5.38;1.50;;;7.00;90.20;;;;;;5027440;28;20037;-83
2021/11/28 09:42:40;;;;;;;1.92;1.40;;;7.10;90.20;;;;;;5027070;28;20041;-85
2021/11/28 09:45:07;;;;;;;1.58;1.17;;;7.10;90.20;;;;;;5024240;28;20061;-82
2021/11/28 09:47:35;;;;;;;8.82;1.40;;;7.10;90.10;;;;;;5027936;28;20029;-85
2021/11/28 09:50:08;;;;;;;5.63;1.27;;;7.10;90.10;;;;;;5029584;28;20462;-81
2021/11/28 09:52:34;;;;;;;3.95;1.50;;;7.10;90.10;;;;;;5027133;28;20049;-86
2021/11/28 09:55:04;;;;;;;2.88;1.23;;;7.10;90.10;;;;;;5029768;28;20025;-84
2021/11/28 09:57:30;;;;;;;2.05;1.20;;;7.10;90.10;;;;;;5024289;28;20034;-83
2021/11/28 09:59:56;;;;;;;1.20;1.00;;;7.10;90.00;;;;;;5031061;28;20033;-83
2021/11/28 10:02:29;;;;;;;1.23;1.13;;;7.20;89.90;;;;;;5032072;28;20041;-83
2021/11/28 10:04:57;;;;;;;1.85;0.80;;;7.10;89.60;;;;;;5028185;28;20113;-82
2021/11/28 10:07:23;;;;;;;0.63;0.63;;;7.10;89.60;;;;;;5027365;28;20034;-83
2021/11/28 10:09:50;;;;;;;1.20;0.60;;;7.10;89.50;;;;;;5030611;28;20108;-83
2021/11/28 10:12:26;;;;;;;0.95;0.65;;;7.00;89.60;;;;;;5031813;28;20045;-84
2021/11/28 10:15:00;;;;;;;0.55;0.45;;;7.00;89.80;;;;;;5027940;28;20017;-80
2021/11/28 10:17:29;;;;;;;0.30;0.30;;;7.00;89.90;;;;;;5029894;28;20052;-81
2021/11/28 10:20:00;;;;;;;1.42;0.68;;;7.00;90.00;;;;;;5029722;28;20108;-77
2021/11/28 10:22:27;;;;;;;2.15;0.50;;;7.00;90.10;;;;;;5030610;28;20099;-81
2021/11/28 10:25:30;;;;;;;0.65;0.65;;;6.90;90.20;;;;;;5026590;28;20083;-81
2021/11/28 10:28:05;;;;;;;0.60;0.60;;;6.90;90.40;;;;;;5026636;28;20107;-83
2021/11/28 10:30:38;;;;;;;5.75;0.85;;;7.00;90.60;;;;;;5030148;28;20026;-83
2021/11/28 10:33:16;;;;;;;0.65;0.63;;;7.00;90.60;;;;;;5028150;28;20049;-80
2021/11/28 10:36:03;;;;;;;0.77;0.77;;;7.00;90.60;;;;;;5029182;28;20031;-86
2021/11/28 10:38:38;;;;;;;3.30;0.77;;;7.00;90.80;;;;;;5031046;28;20117;-87
2021/11/28 10:41:25;;;;;;;1.05;0.55;;;7.00;90.70;;;;;;5032564;28;20043;-85
2021/11/28 10:43:52;;;;;;;2.13;0.80;;;7.00;90.80;;;;;;5033836;28;20492;-86
2021/11/28 10:46:26;;;;;;;1.05;0.60;;;7.10;90.90;;;;;;5034370;28;20029;-83
2021/11/28 10:49:09;;;;;;;0.80;0.60;;;7.10;90.90;;;;;;5028832;28;20428;-84
2021/11/28 10:51:37;;;;;;;1.38;0.95;;;7.10;91.00;;;;;;5030766;28;20049;-84
2021/11/28 10:54:32;;;;;;;0.75;0.50;;;7.10;90.80;;;;;;5027629;28;20040;-83
2021/11/28 10:57:07;;;;;;;0.73;0.50;;;7.10;90.90;;;;;;5032720;28;20469;-84
2021/11/28 10:59:36;;;;;;;2.08;0.68;;;7.10;91.00;;;;;;5030568;28;20029;-83
2021/11/28 11:02:33;;;;;;;2.72;0.82;;;7.20;91.20;;;;;;5025137;28;20052;-83
2021/11/28 11:05:01;;;;;;;0.60;0.60;;;7.20;91.30;;;;;;5028881;28;20108;-83
2021/11/28 11:07:39;;;;;;;0.85;0.82;;;7.20;91.30;;;;;;5028756;28;20147;-83
2021/11/28 11:10:19;;;;;;;4.95;0.82;;;7.20;91.20;;;;;;5027157;28;20544;-84
2021/11/28 11:12:45;;;;;;;0.52;0.45;;;7.20;91.00;;;;;;5025806;28;20076;-83
2021/11/28 11:15:15;;;;;;;2.60;0.50;;;7.20;90.90;;;;;;5021330;28;20025;-78
2021/11/28 11:17:56;;;;;;;2.17;0.55;;;7.30;90.90;;;;;;5027066;28;20052;-82
2021/11/28 11:20:26;;;;;;;1.52;0.80;;;7.30;90.80;;;;;;5029484;28;20072;-84
2021/11/28 11:22:51;;;;;;;0.68;0.50;;;7.40;90.70;;;;;;5030653;28;20034;-93
2021/11/28 11:25:18;;;;;;;2.13;0.50;;;7.40;90.70;;;;;;5031469;28;20044;-83
2021/11/28 11:27:45;;;;;;;1.55;1.23;;;7.40;90.50;;;;;;5028234;28;20116;-84
2021/11/28 11:30:16;;;;;;;0.30;0.30;;;7.40;90.50;;;;;;5030002;28;20060;-82
2021/11/28 11:32:43;;;;;;;0.40;0.40;;;7.40;90.60;;;;;;5032650;28;20397;-82
2021/11/28 11:35:19;;;;;;;2.70;0.55;;;7.30;90.60;;;;;;5029717;28;20029;-81
2021/11/28 11:37:46;;;;;;;1.45;0.52;;;7.30;90.60;;;;;;5029833;28;20033;-79
2021/11/28 11:40:14;;;;;;;6.65;1.30;;;7.30;90.50;;;;;;5030698;28;20036;-80
2021/11/28 11:42:42;;;;;;;0.40;0.40;;;7.30;90.50;;;;;;5030029;28;20026;-80
2021/11/28 11:45:09;;;;;;;1.27;0.55;;;7.30;90.60;;;;;;5019952;28;20049;-79
2021/11/28 11:47:35;;;;;;;1.17;0.43;;;7.30;90.90;;;;;;5030665;28;20112;-81
2021/11/28 11:50:02;;;;;;;3.20;0.85;;;7.30;90.60;;;;;;5019494;28;20053;-80
2021/11/28 11:52:29;;;;;;;0.50;0.50;;;7.30;90.60;;;;;;5019702;28;20524;-84
2021/11/28 11:54:58;;;;;;;4.10;0.60;;;7.40;90.60;;;;;;5029599;28;20025;-78
2021/11/28 11:57:52;;;;;;;0.68;0.43;;;7.40;90.60;;;;;;5028092;28;20036;-86
2021/11/28 12:00:30;;;;;;;0.57;0.57;;;7.40;90.60;;;;;;5030147;28;20492;-82
2021/11/28 12:02:56;;;;;;;6.38;0.65;;;7.40;90.50;;;;;;5023839;28;20029;-79
2021/11/28 12:05:34;;;;;;;2.72;0.70;;;7.40;90.50;;;;;;5041485;28;20025;-80
2021/11/28 12:08:18;;;;;;;2.47;0.60;;;7.50;90.50;;;;;;5030582;28;20025;-85
2021/11/28 12:10:49;;;;;;;0.57;0.57;;;7.50;90.50;;;;;;5031798;28;20021;-80
2021/11/28 12:13:39;;;;;;;0.50;0.50;;;7.50;90.50;;;;;;5030992;28;20041;-80
2021/11/28 12:16:08;;;;;;;2.70;0.70;;;7.60;90.50;;;;;;5027138;28;20116;-81
2021/11/28 12:18:33;;;;;;;1.33;1.10;;;7.60;90.50;;;;;;5026737;28;20072;-85
2021/11/28 12:21:05;;;;;;;4.72;0.73;;;7.60;90.40;;;;;;5043684;28;20058;-86
2021/11/28 12:23:46;;;;;;;1.50;0.60;;;7.60;90.50;;;;;;5041120;28;20607;-86
2021/11/28 12:26:33;;;;;;;4.10;0.75;;;7.70;90.50;;;;;;5030400;28;20029;-85
2021/11/28 12:29:11;;;;;;;3.25;2.22;;;7.70;90.50;;;;;;5040115;28;20090;-87
2021/11/28 12:31:48;;;;;;;5.43;1.45;;;7.70;90.40;;;;;;5032243;28;20084;-82
2021/11/28 12:34:25;;;;;;;2.33;1.02;;;7.80;90.40;;;;;;5042994;28;20100;-86
2021/11/28 12:36:56;;;;;;;8.27;1.20;;;7.70;90.40;;;;;;5041065;28;20025;-86
2021/11/28 12:39:23;;;;;;;0.57;0.40;;;7.70;90.30;;;;;;5025370;28;20033;-82
2021/11/28 12:41:51;;;;;;;7.78;2.72;;;7.70;90.20;;;;;;5032308;28;20472;-80
2021/11/28 12:44:28;;;;;;;3.80;1.10;;;7.60;90.30;;;;;;5038876;28;20633;-84
2021/11/28 12:47:14;;;;;;;8.23;2.05;;;7.70;90.40;;;;;;5041817;28;20095;-85
2021/11/28 12:49:53;;;;;;;3.42;1.73;;;7.60;90.50;;;;;;5028420;28;20037;-79
2021/11/28 12:52:25;;;;;;;6.25;2.72;;;7.70;90.50;;;;;;5031862;28;20060;-84
2021/11/28 12:55:03;;;;;;;2.58;1.70;;;7.70;90.50;;;;;;5027733;28;20029;-76
2021/11/28 12:57:30;;;;;;;4.05;1.50;;;7.70;90.50;;;;;;5032145;28;20029;-87
2021/11/28 13:00:11;;;;;;;5.45;0.82;;;7.70;90.40;;;;;;5033407;28;20022;-84
2021/11/28 13:02:51;;;;;;;3.33;0.70;;;7.70;90.60;;;;;;5027996;28;20025;-86
2021/11/28 13:05:40;;;;;;;7.03;2.20;;;7.70;90.60;;;;;;5031209;28;20077;-85
2021/11/28 13:08:07;;;;;;;4.05;1.67;;;7.80;90.60;;;;;;5025202;28;20037;-83
2021/11/28 13:10:41;;;;;;;0.93;0.60;;;7.80;90.60;;;;;;5020642;28;20030;-78
2021/11/28 13:13:10;;;;;;;9.45;1.00;;;7.90;90.60;;;;;;5026637;28;20053;-77
2021/11/28 13:15:44;;;;;;;3.90;0.73;;;7.90;90.50;;;;;;5026223;28;20123;-82
2021/11/28 13:18:12;;;;;;;4.70;0.80;;;7.90;90.40;;;;;;5028534;28;20048;-84
2021/11/28 13:21:02;;;;;;;4.78;0.95;;;7.90;90.40;;;;;;5027418;28;20542;-81
2021/11/28 13:23:49;;;;;;;1.10;0.70;;;8.00;90.40;;;;;;5026764;28;20132;-82